Time;durP1;ratioP1;P1;durP2;ratioP2;P2;SDS_P1;SDS_P2;PMS_P1;PMS_P2;Temp;Humidity;BMP_temperature;BMP_pressure;BME280_temperature;BME280_humidity;BME280_pressure;Samples;Min_cycle;Max_cycle;Signal;HPM_P1;HPM_P2
2023/06/20 00:00:35;;;;;;;7.90;4.50;;;21.60;98.00;;;;;;5053129;28;20464;-68
2023/06/20 00:03:02;;;;;;;8.60;4.77;;;21.60;98.00;;;;;;5052903;28;20454;-68
2023/06/20 00:05:29;;;;;;;7.37;4.43;;;21.70;98.00;;;;;;5035225;28;20842;-68
2023/06/20 00:07:56;;;;;;;8.03;4.80;;;21.60;98.00;;;;;;5052845;28;20457;-68
2023/06/20 00:10:24;;;;;;;9.10;4.63;;;21.80;98.00;;;;;;5035046;28;20466;-68
2023/06/20 00:12:52;;;;;;;7.50;4.70;;;21.70;98.00;;;;;;5052772;28;20477;-68
2023/06/20 00:15:25;;;;;;;6.30;4.00;;;21.70;98.00;;;;;;5034955;28;20454;-68
2023/06/20 00:17:52;;;;;;;15.43;4.60;;;21.80;98.00;;;;;;5035873;28;20851;-68
2023/06/20 00:20:19;;;;;;;9.50;4.50;;;21.90;98.00;;;;;;5052397;28;20458;-68
2023/06/20 00:22:50;;;;;;;6.93;4.30;;;22.00;98.00;;;;;;5052566;28;20465;-68
2023/06/20 00:25:17;;;;;;;8.37;4.60;;;22.00;98.00;;;;;;5035479;28;20454;-69
2023/06/20 00:27:46;;;;;;;8.23;4.70;;;22.00;98.00;;;;;;5052537;28;20461;-68
2023/06/20 00:30:14;;;;;;;8.50;5.13;;;22.00;98.00;;;;;;5052461;28;20457;-68
2023/06/20 00:32:41;;;;;;;6.73;4.50;;;21.80;98.00;;;;;;5052409;28;20485;-68
2023/06/20 00:35:12;;;;;;;7.43;4.50;;;21.70;98.00;;;;;;5052489;28;20812;-68
2023/06/20 00:37:39;;;;;;;7.83;4.83;;;21.70;98.00;;;;;;5052721;28;20468;-68
2023/06/20 00:40:08;;;;;;;8.40;4.73;;;21.80;98.00;;;;;;5052281;28;20454;-68
2023/06/20 00:42:36;;;;;;;7.90;4.70;;;22.10;98.00;;;;;;5052477;28;20500;-68
2023/06/20 00:45:22;;;;;;;6.90;4.30;;;22.20;98.00;;;;;;5034486;28;20547;-68
2023/06/20 00:47:49;;;;;;;8.33;4.63;;;22.00;98.00;;;;;;5052593;28;20453;-68
2023/06/20 00:50:16;;;;;;;7.97;4.50;;;21.90;98.00;;;;;;5052188;28;21038;-68
2023/06/20 00:52:46;;;;;;;8.03;4.60;;;22.00;98.00;;;;;;5052223;28;20481;-68
2023/06/20 00:55:14;;;;;;;6.83;4.30;;;21.90;98.00;;;;;;5051797;28;20458;-68
2023/06/20 00:57:45;;;;;;;7.63;4.87;;;21.90;98.00;;;;;;5051997;28;20458;-68
2023/06/20 01:00:16;;;;;;;7.27;4.33;;;22.10;98.00;;;;;;5051900;28;20519;-68
2023/06/20 01:02:46;;;;;;;7.37;4.33;;;22.30;98.00;;;;;;5052098;28;20460;-68
2023/06/20 01:05:14;;;;;;;8.17;4.83;;;22.50;98.00;;;;;;5051866;28;20468;-69
2023/06/20 01:07:48;;;;;;;10.53;4.40;;;22.50;98.00;;;;;;5051827;28;20528;-69
2023/06/20 01:10:21;;;;;;;11.73;4.70;;;22.40;98.00;;;;;;5051922;28;20973;-69
2023/06/20 01:12:56;;;;;;;7.20;4.60;;;22.30;98.00;;;;;;5051824;28;20555;-69
2023/06/20 01:15:31;;;;;;;10.57;5.20;;;22.20;98.00;;;;;;5051984;28;20930;-68
2023/06/20 01:18:18;;;;;;;6.17;4.20;;;22.20;98.00;;;;;;5051791;28;21270;-68
2023/06/20 01:20:50;;;;;;;6.70;4.20;;;22.20;98.00;;;;;;5034288;28;20854;-68
2023/06/20 01:23:25;;;;;;;9.13;4.73;;;22.10;98.00;;;;;;5051790;28;20462;-68
2023/06/20 01:26:00;;;;;;;6.20;3.87;;;22.10;98.00;;;;;;5051901;28;20885;-68
2023/06/20 01:28:32;;;;;;;6.50;4.30;;;22.00;98.00;;;;;;5053264;28;20457;-68
2023/06/20 01:31:04;;;;;;;6.83;3.90;;;21.80;98.00;;;;;;5055926;28;21022;-68
2023/06/20 01:33:36;;;;;;;8.60;4.10;;;21.80;98.00;;;;;;5056019;28;20903;-68
2023/06/20 01:36:05;;;;;;;6.23;3.87;;;21.80;98.00;;;;;;5055966;28;20458;-68
2023/06/20 01:38:36;;;;;;;7.90;4.03;;;21.80;98.00;;;;;;5055830;28;20460;-68
2023/06/20 01:41:05;;;;;;;6.73;4.00;;;21.70;98.00;;;;;;5055844;28;20461;-68
2023/06/20 01:43:34;;;;;;;7.47;4.37;;;21.70;98.00;;;;;;5055612;28;20462;-68
2023/06/20 01:46:03;;;;;;;7.17;4.07;;;21.70;98.00;;;;;;5055631;28;20587;-68
2023/06/20 01:48:32;;;;;;;7.00;3.87;;;21.60;98.00;;;;;;5055718;28;20457;-68
2023/06/20 01:51:00;;;;;;;7.87;4.77;;;21.50;98.00;;;;;;5021512;28;20959;-68
2023/06/20 01:53:28;;;;;;;7.43;4.23;;;21.40;98.00;;;;;;5037391;28;20477;-68
2023/06/20 01:56:01;;;;;;;7.37;4.27;;;21.40;98.00;;;;;;5055275;28;20519;-68
2023/06/20 01:58:32;;;;;;;8.60;3.70;;;21.30;98.00;;;;;;5055308;28;20484;-68
2023/06/20 02:01:00;;;;;;;7.77;4.30;;;21.30;98.00;;;;;;5055288;28;20458;-69
2023/06/20 02:03:28;;;;;;;6.50;3.90;;;21.20;98.00;;;;;;5055186;28;20512;-68
2023/06/20 02:05:58;;;;;;;7.20;4.17;;;21.10;98.00;;;;;;5055241;28;20492;-69
2023/06/20 02:08:27;;;;;;;6.60;4.23;;;21.10;98.00;;;;;;5055176;28;20457;-69
2023/06/20 02:10:54;;;;;;;6.23;3.87;;;21.10;98.00;;;;;;5055225;28;20453;-69
2023/06/20 02:13:24;;;;;;;7.60;3.97;;;21.10;98.00;;;;;;5055155;28;20864;-69
2023/06/20 02:15:53;;;;;;;13.60;4.07;;;21.10;98.00;;;;;;5055150;28;20957;-69
2023/06/20 02:18:20;;;;;;;8.03;4.03;;;21.20;98.00;;;;;;5055133;28;21059;-69
2023/06/20 02:20:50;;;;;;;7.47;4.13;;;21.20;98.00;;;;;;5054857;28;20462;-69
2023/06/20 02:23:23;;;;;;;5.63;3.70;;;21.20;98.00;;;;;;5055175;28;20499;-69
2023/06/20 02:25:52;;;;;;;10.40;3.53;;;21.10;98.00;;;;;;5054943;28;20468;-69
2023/06/20 02:28:22;;;;;;;7.17;4.13;;;21.10;98.00;;;;;;5055160;28;20527;-69
2023/06/20 02:30:54;;;;;;;6.10;3.70;;;21.10;98.00;;;;;;5037323;28;20465;-69
2023/06/20 02:33:23;;;;;;;6.30;3.63;;;21.10;98.00;;;;;;5037590;28;20490;-69
2023/06/20 02:35:51;;;;;;;7.13;3.57;;;21.00;98.00;;;;;;5054808;28;20446;-69
2023/06/20 02:38:18;;;;;;;8.40;4.20;;;20.80;98.00;;;;;;5054924;28;20454;-69
2023/06/20 02:40:45;;;;;;;7.77;4.07;;;20.90;98.00;;;;;;5054463;28;20466;-69
2023/06/20 02:43:12;;;;;;;6.87;3.60;;;20.90;98.00;;;;;;5054619;28;20956;-69
2023/06/20 02:45:41;;;;;;;8.13;4.27;;;20.80;98.00;;;;;;5054027;28;20473;-69
2023/06/20 02:48:19;;;;;;;6.20;3.47;;;20.70;98.00;;;;;;5054495;28;21017;-69
2023/06/20 02:50:55;;;;;;;6.40;4.20;;;20.70;98.00;;;;;;5054135;28;20465;-69
2023/06/20 02:53:31;;;;;;;6.20;3.30;;;20.60;98.00;;;;;;5036644;28;20507;-69
2023/06/20 02:56:02;;;;;;;6.80;3.60;;;20.50;98.00;;;;;;5054035;28;20467;-69
2023/06/20 02:58:30;;;;;;;7.30;3.83;;;20.40;98.00;;;;;;5036552;28;20936;-69
2023/06/20 03:01:00;;;;;;;6.60;4.07;;;20.40;98.00;;;;;;5054148;28;20457;-69
2023/06/20 03:03:30;;;;;;;8.67;4.37;;;20.40;98.00;;;;;;5054299;28;20461;-69
2023/06/20 03:05:59;;;;;;;9.50;5.50;;;20.40;98.00;;;;;;5036829;28;20446;-69
2023/06/20 03:08:28;;;;;;;7.57;4.47;;;20.40;98.00;;;;;;5054004;28;20450;-69
2023/06/20 03:10:56;;;;;;;7.70;4.10;;;20.50;98.00;;;;;;5053949;28;20454;-69
2023/06/20 03:13:24;;;;;;;5.80;3.40;;;20.50;98.00;;;;;;5053939;28;20477;-69
2023/06/20 03:15:51;;;;;;;6.50;3.60;;;20.50;98.00;;;;;;5053968;28;20461;-69
2023/06/20 03:18:20;;;;;;;6.30;3.80;;;20.40;98.00;;;;;;5054220;28;20454;-69
2023/06/20 03:20:48;;;;;;;5.77;3.87;;;20.40;98.00;;;;;;5053907;28;20461;-69
2023/06/20 03:23:15;;;;;;;8.37;3.80;;;20.50;98.00;;;;;;5053912;28;20466;-68
2023/06/20 03:25:43;;;;;;;6.30;4.03;;;20.50;98.00;;;;;;5053668;28;20462;-69
2023/06/20 03:28:10;;;;;;;6.50;4.10;;;20.60;98.00;;;;;;5036560;28;20943;-69
2023/06/20 03:30:38;;;;;;;7.40;4.10;;;20.60;98.00;;;;;;5053774;28;20450;-69
2023/06/20 03:33:05;;;;;;;5.43;3.53;;;20.50;98.00;;;;;;5053927;28;20488;-69
2023/06/20 03:35:34;;;;;;;5.83;3.90;;;20.40;98.00;;;;;;5053718;28;20465;-69
2023/06/20 03:38:01;;;;;;;10.00;4.40;;;20.40;98.00;;;;;;5036855;28;20477;-69
2023/06/20 03:40:28;;;;;;;10.00;4.00;;;20.50;98.00;;;;;;5033517;28;20876;-69
2023/06/20 03:42:55;;;;;;;7.40;4.10;;;20.50;98.00;;;;;;5033626;28;20477;-69
2023/06/20 03:45:22;;;;;;;10.37;3.53;;;20.40;98.00;;;;;;5032959;28;20474;-69
2023/06/20 03:47:50;;;;;;;6.63;4.03;;;20.40;98.00;;;;;;5033403;28;20462;-69
2023/06/20 03:50:17;;;;;;;6.90;3.83;;;20.40;98.00;;;;;;5033146;28;20457;-69
2023/06/20 03:52:45;;;;;;;6.07;4.10;;;20.40;98.00;;;;;;5032690;28;20455;-68
2023/06/20 03:55:13;;;;;;;7.77;4.23;;;20.30;98.00;;;;;;5033229;28;20964;-69
2023/06/20 03:57:40;;;;;;;7.17;4.40;;;20.40;98.00;;;;;;5033110;28;20944;-69
2023/06/20 04:00:11;;;;;;;5.97;3.87;;;20.20;98.00;;;;;;5032076;28;20450;-69
2023/06/20 04:02:41;;;;;;;5.43;3.40;;;20.00;98.00;;;;;;5033111;28;20473;-69
2023/06/20 04:05:10;;;;;;;8.07;4.37;;;20.00;98.00;;;;;;5033275;28;20826;-69
2023/06/20 04:07:41;;;;;;;8.80;4.33;;;20.00;98.00;;;;;;5032725;28;20461;-69
2023/06/20 04:10:10;;;;;;;6.83;3.80;;;19.90;98.00;;;;;;5033125;28;20463;-69
2023/06/20 04:12:38;;;;;;;5.87;3.53;;;20.10;98.00;;;;;;5032861;28;20477;-69
2023/06/20 04:15:06;;;;;;;7.50;3.93;;;20.20;98.00;;;;;;5032844;28;20459;-69
2023/06/20 04:17:33;;;;;;;6.37;3.50;;;20.20;98.00;;;;;;5032939;28;20455;-69
2023/06/20 04:20:01;;;;;;;5.20;3.50;;;20.30;98.00;;;;;;5032952;28;20547;-69
2023/06/20 04:22:31;;;;;;;7.27;4.30;;;20.50;98.00;;;;;;5033035;28;20459;-69
2023/06/20 04:24:58;;;;;;;5.70;3.33;;;20.50;98.00;;;;;;5033148;28;21103;-69
2023/06/20 04:27:26;;;;;;;7.57;4.07;;;20.30;98.00;;;;;;5032991;28;20454;-69
2023/06/20 04:29:53;;;;;;;5.43;3.73;;;20.20;98.00;;;;;;5032951;28;20455;-69
2023/06/20 04:32:20;;;;;;;6.97;3.80;;;20.10;98.00;;;;;;5032289;28;20451;-69
2023/06/20 04:34:52;;;;;;;6.47;3.40;;;20.10;98.00;;;;;;5032257;28;20483;-69
2023/06/20 04:37:19;;;;;;;6.23;3.77;;;20.10;98.00;;;;;;5032713;28;20835;-69
2023/06/20 04:39:46;;;;;;;6.07;3.50;;;20.10;98.00;;;;;;5032406;28;20450;-69
2023/06/20 04:42:13;;;;;;;6.30;3.33;;;20.10;98.00;;;;;;5032069;28;20504;-69
2023/06/20 04:44:44;;;;;;;5.43;3.47;;;20.10;98.00;;;;;;5032315;28;20483;-69
2023/06/20 04:47:12;;;;;;;6.20;3.50;;;20.20;98.00;;;;;;5031387;28;20470;-69
2023/06/20 04:49:40;;;;;;;7.10;3.87;;;20.10;98.00;;;;;;5032337;28;20446;-69
2023/06/20 04:52:07;;;;;;;5.37;3.50;;;20.10;98.00;;;;;;5032467;28;20542;-69
2023/06/20 04:54:34;;;;;;;5.83;3.80;;;20.30;98.00;;;;;;5032315;28;20483;-69
2023/06/20 04:57:02;;;;;;;6.53;3.93;;;20.40;98.00;;;;;;5032338;28;20462;-69
2023/06/20 04:59:29;;;;;;;6.53;4.00;;;20.60;98.00;;;;;;5031014;28;20541;-69
2023/06/20 05:01:58;;;;;;;9.07;4.60;;;20.50;98.00;;;;;;5030847;28;20517;-69
2023/06/20 05:04:25;;;;;;;6.97;3.90;;;20.50;98.00;;;;;;5031180;28;20481;-69
2023/06/20 05:06:52;;;;;;;7.13;3.90;;;20.70;98.00;;;;;;5032109;28;20467;-69
2023/06/20 05:09:19;;;;;;;7.40;3.80;;;20.70;98.00;;;;;;5031994;28;20457;-69
2023/06/20 05:11:46;;;;;;;7.73;4.30;;;20.90;98.00;;;;;;5032029;28;21183;-69
2023/06/20 05:14:13;;;;;;;7.10;4.13;;;20.90;98.00;;;;;;5032075;28;20537;-69
2023/06/20 05:16:40;;;;;;;6.53;4.30;;;20.90;98.00;;;;;;5032073;28;20478;-69
2023/06/20 05:19:12;;;;;;;6.97;3.90;;;21.10;98.00;;;;;;5031730;28;20458;-69
2023/06/20 05:21:40;;;;;;;6.70;3.90;;;21.00;98.00;;;;;;5032031;28;20465;-69
2023/06/20 05:24:07;;;;;;;5.70;3.63;;;20.90;98.00;;;;;;5032038;28;20458;-69
2023/06/20 05:26:34;;;;;;;5.60;3.47;;;20.90;98.00;;;;;;5032008;28;20454;-69
2023/06/20 05:29:01;;;;;;;7.27;4.23;;;20.90;98.00;;;;;;5031897;28;20466;-69
2023/06/20 05:31:28;;;;;;;10.37;4.27;;;21.10;98.00;;;;;;5031817;28;20501;-69
2023/06/20 05:33:55;;;;;;;6.00;3.90;;;21.10;98.00;;;;;;5031609;28;20479;-69
2023/06/20 05:36:30;;;;;;;8.37;4.30;;;21.10;98.00;;;;;;5031576;28;20454;-69
2023/06/20 05:38:58;;;;;;;5.30;3.50;;;21.20;98.00;;;;;;5030449;28;20458;-69
2023/06/20 05:41:25;;;;;;;6.60;3.67;;;21.20;98.00;;;;;;5031775;28;20465;-69
2023/06/20 05:43:52;;;;;;;6.53;3.90;;;21.40;98.00;;;;;;5031424;28;20474;-69
2023/06/20 05:46:19;;;;;;;6.50;3.80;;;21.50;98.00;;;;;;5031757;28;20458;-69
2023/06/20 05:48:48;;;;;;;6.70;3.80;;;21.70;98.00;;;;;;5031600;28;20454;-69
2023/06/20 05:51:15;;;;;;;5.00;3.37;;;21.90;98.00;;;;;;5031782;28;20562;-69
2023/06/20 05:53:44;;;;;;;8.50;3.80;;;22.00;98.00;;;;;;5031584;28;20844;-69
2023/06/20 05:56:13;;;;;;;6.93;3.73;;;22.10;98.00;;;;;;5031763;28;20509;-69
2023/06/20 05:58:44;;;;;;;7.23;3.33;;;22.10;98.00;;;;;;5031799;28;20505;-69
2023/06/20 06:01:11;;;;;;;4.77;3.00;;;22.10;98.00;;;;;;5031676;28;20493;-69
2023/06/20 06:03:38;;;;;;;5.67;3.10;;;22.10;98.00;;;;;;5031663;28;21093;-69
2023/06/20 06:06:09;;;;;;;5.20;3.07;;;22.10;98.00;;;;;;5031547;28;20454;-69
2023/06/20 06:08:36;;;;;;;4.53;3.07;;;22.10;98.00;;;;;;5031877;28;20454;-69
2023/06/20 06:11:06;;;;;;;5.37;3.20;;;22.10;98.00;;;;;;5031583;28;20880;-67
2023/06/20 06:13:33;;;;;;;4.80;3.07;;;22.20;98.00;;;;;;5031481;28;20561;-66
2023/06/20 06:16:15;;;;;;;5.00;3.10;;;22.20;98.00;;;;;;5035223;28;20462;-66
2023/06/20 06:18:42;;;;;;;4.50;2.97;;;22.20;98.00;;;;;;5035044;28;20459;-66
2023/06/20 06:21:09;;;;;;;5.70;3.20;;;22.30;98.00;;;;;;5035104;28;20473;-66
2023/06/20 06:23:36;;;;;;;5.10;3.10;;;22.40;98.00;;;;;;5035302;28;20451;-67
2023/06/20 06:26:05;;;;;;;3.77;3.10;;;22.50;98.00;;;;;;5034443;28;20454;-64
2023/06/20 06:28:32;;;;;;;6.47;3.80;;;22.70;98.00;;;;;;5034931;28;20497;-67
2023/06/20 06:31:01;;;;;;;7.10;2.80;;;23.10;98.00;;;;;;5034099;28;20794;-68
2023/06/20 06:33:29;;;;;;;5.33;3.13;;;23.40;98.00;;;;;;5034188;28;20879;-67
2023/06/20 06:35:57;;;;;;;4.17;2.73;;;23.80;98.00;;;;;;5033880;28;20999;-66
2023/06/20 06:38:25;;;;;;;4.30;2.93;;;24.10;98.00;;;;;;5034233;28;20528;-67
2023/06/20 06:40:54;;;;;;;5.43;2.70;;;24.20;98.00;;;;;;5033781;28;20462;-67
2023/06/20 06:43:23;;;;;;;4.63;2.90;;;24.30;98.00;;;;;;5032780;28;20466;-67
2023/06/20 06:45:50;;;;;;;4.00;3.00;;;24.50;98.00;;;;;;5033723;28;20463;-65
2023/06/20 06:48:17;;;;;;;5.80;3.00;;;24.70;98.00;;;;;;5033834;28;20955;-66
2023/06/20 06:50:46;;;;;;;5.03;2.90;;;24.80;98.00;;;;;;5033776;28;20819;-67
2023/06/20 06:53:13;;;;;;;4.43;2.73;;;24.90;98.00;;;;;;5032686;28;20848;-66
2023/06/20 06:55:46;;;;;;;5.30;2.90;;;24.90;98.00;;;;;;5033511;28;20482;-65
2023/06/20 06:58:13;;;;;;;5.30;3.10;;;25.00;98.00;;;;;;5033816;28;20872;-67
2023/06/20 07:00:41;;;;;;;3.80;2.87;;;25.10;98.00;;;;;;5033644;28;20983;-67
2023/06/20 07:03:10;;;;;;;5.27;3.13;;;25.10;98.00;;;;;;5033541;28;20459;-66
2023/06/20 07:05:38;;;;;;;5.57;2.90;;;25.10;98.00;;;;;;5033442;28;20470;-66
2023/06/20 07:08:05;;;;;;;5.03;3.00;;;25.10;98.00;;;;;;5032395;28;20458;-67
2023/06/20 07:10:32;;;;;;;4.70;3.17;;;25.10;98.00;;;;;;5033632;28;20482;-63
2023/06/20 07:13:00;;;;;;;4.87;2.90;;;25.10;98.00;;;;;;5033645;28;20512;-64
2023/06/20 07:15:27;;;;;;;4.40;3.00;;;25.10;98.00;;;;;;5033327;28;20545;-65
2023/06/20 07:17:56;;;;;;;4.77;3.10;;;25.10;98.00;;;;;;5033424;28;20508;-67
2023/06/20 07:20:23;;;;;;;4.77;2.87;;;25.20;98.00;;;;;;5032160;28;20455;-63
2023/06/20 07:22:50;;;;;;;4.97;3.13;;;25.30;98.00;;;;;;5041236;28;20902;-64
2023/06/20 07:25:19;;;;;;;4.93;3.33;;;25.30;98.00;;;;;;5052386;28;20491;-64
2023/06/20 07:27:46;;;;;;;4.40;2.97;;;25.20;98.00;;;;;;5052463;28;20512;-64
2023/06/20 07:30:13;;;;;;;4.80;3.10;;;25.30;98.00;;;;;;5035272;28;20857;-65
2023/06/20 07:32:40;;;;;;;4.60;2.73;;;25.40;98.00;;;;;;5052847;28;20461;-63
2023/06/20 07:35:10;;;;;;;6.20;3.40;;;25.60;98.00;;;;;;5052498;28;20481;-68
2023/06/20 07:37:37;;;;;;;9.03;3.87;;;25.60;98.00;;;;;;5035050;28;20457;-64
2023/06/20 07:40:07;;;;;;;5.70;3.33;;;25.40;98.00;;;;;;5052607;28;20465;-64
2023/06/20 07:42:34;;;;;;;5.73;3.40;;;25.40;98.00;;;;;;5039270;28;20459;-65
2023/06/20 07:45:01;;;;;;;5.50;3.40;;;25.40;98.00;;;;;;5026567;28;20546;-66
2023/06/20 07:47:28;;;;;;;5.33;3.60;;;25.50;98.00;;;;;;5037538;28;20521;-65
2023/06/20 07:49:55;;;;;;;10.53;3.67;;;25.60;98.00;;;;;;5052448;28;20488;-66
2023/06/20 07:52:26;;;;;;;7.07;3.40;;;25.80;98.00;;;;;;5052701;28;20453;-66
2023/06/20 07:54:55;;;;;;;13.03;3.53;;;25.90;98.00;;;;;;5052185;28;21090;-65
2023/06/20 07:57:23;;;;;;;6.13;3.53;;;26.00;98.00;;;;;;5052270;28;20955;-66
2023/06/20 07:59:50;;;;;;;5.80;3.43;;;26.10;98.00;;;;;;5052109;28;20828;-66
2023/06/20 08:02:17;;;;;;;4.60;3.20;;;26.20;98.00;;;;;;5052040;28;20458;-65
2023/06/20 08:04:44;;;;;;;6.60;3.40;;;26.20;98.00;;;;;;5052127;28;20461;-65
2023/06/20 08:07:12;;;;;;;5.93;3.00;;;26.20;98.00;;;;;;5052082;28;20456;-65
2023/06/20 08:09:43;;;;;;;6.13;4.13;;;26.30;98.00;;;;;;5052033;28;20449;-66
2023/06/20 08:12:15;;;;;;;7.40;3.50;;;26.50;98.00;;;;;;5052779;28;20462;-65
2023/06/20 08:14:42;;;;;;;5.13;3.60;;;26.50;98.00;;;;;;5052431;28;20478;-65
2023/06/20 08:17:09;;;;;;;6.70;4.03;;;26.60;98.00;;;;;;5034690;28;20523;-66
2023/06/20 08:19:36;;;;;;;5.60;3.57;;;26.60;98.00;;;;;;5051968;28;20748;-66
2023/06/20 08:22:04;;;;;;;6.63;3.30;;;26.70;98.00;;;;;;5051486;28;20480;-64
2023/06/20 08:24:33;;;;;;;5.70;3.57;;;26.70;98.00;;;;;;5051864;28;20450;-64
2023/06/20 08:27:03;;;;;;;6.73;3.80;;;26.80;98.00;;;;;;5051706;28;20539;-64
2023/06/20 08:29:30;;;;;;;7.07;3.53;;;26.90;98.00;;;;;;5051815;28;20457;-64
2023/06/20 08:31:57;;;;;;;8.07;3.93;;;26.90;98.00;;;;;;5037107;28;20524;-63
2023/06/20 08:34:26;;;;;;;6.70;3.63;;;26.90;98.00;;;;;;5031853;28;20479;-64
2023/06/20 08:36:54;;;;;;;6.30;4.17;;;26.90;98.00;;;;;;5032058;28;20844;-64
2023/06/20 08:39:21;;;;;;;4.80;3.23;;;27.00;98.00;;;;;;5031808;28;20513;-64
2023/06/20 08:41:50;;;;;;;10.37;3.87;;;27.10;98.00;;;;;;5031623;28;20455;-64
2023/06/20 08:44:19;;;;;;;8.63;3.83;;;27.30;98.00;;;;;;5030165;28;20977;-64
2023/06/20 08:46:47;;;;;;;6.60;3.43;;;27.60;98.00;;;;;;5031617;28;20463;-64
2023/06/20 08:49:15;;;;;;;7.77;4.07;;;27.80;98.00;;;;;;5031646;28;20482;-64
2023/06/20 08:51:46;;;;;;;8.03;4.40;;;27.90;98.00;;;;;;5031772;28;20491;-63
2023/06/20 08:54:16;;;;;;;6.03;3.70;;;28.10;98.00;;;;;;5031726;28;20494;-62
2023/06/20 08:56:46;;;;;;;9.43;3.87;;;28.10;98.00;;;;;;5032544;28;20493;-63
2023/06/20 08:59:13;;;;;;;11.60;4.00;;;28.20;98.00;;;;;;5032685;28;20953;-63
2023/06/20 09:01:42;;;;;;;6.30;3.77;;;28.30;98.00;;;;;;5031684;28;20844;-62
2023/06/20 09:04:11;;;;;;;7.40;3.93;;;28.40;98.00;;;;;;5031865;28;20864;-63
2023/06/20 09:06:38;;;;;;;7.40;4.17;;;28.50;98.00;;;;;;5030536;28;20455;-63
2023/06/20 09:09:06;;;;;;;7.73;4.17;;;28.60;96.50;;;;;;5032909;28;20462;-64
2023/06/20 09:11:36;;;;;;;6.30;4.27;;;28.60;96.80;;;;;;5014805;28;20512;-62
2023/06/20 09:14:04;;;;;;;7.07;4.33;;;28.70;94.60;;;;;;5032476;28;20458;-63
2023/06/20 09:16:31;;;;;;;5.73;3.50;;;28.70;94.40;;;;;;5030788;28;20497;-64
2023/06/20 09:19:03;;;;;;;8.33;4.10;;;28.80;94.20;;;;;;5031477;28;20948;-63
2023/06/20 09:21:30;;;;;;;6.47;4.17;;;28.80;92.40;;;;;;5031606;28;20453;-64
2023/06/20 09:24:07;;;;;;;12.03;3.87;;;28.90;93.70;;;;;;5031186;28;21019;-64
2023/06/20 09:26:35;;;;;;;9.30;4.67;;;29.00;92.60;;;;;;5031605;28;20477;-63
2023/06/20 09:29:10;;;;;;;8.50;4.27;;;29.10;91.80;;;;;;5031200;28;20455;-64
2023/06/20 09:31:41;;;;;;;10.67;4.43;;;29.20;91.20;;;;;;5031390;28;20545;-63
2023/06/20 09:34:12;;;;;;;6.53;4.17;;;29.30;90.80;;;;;;5031294;28;21007;-62
2023/06/20 09:36:40;;;;;;;7.23;4.27;;;29.40;90.30;;;;;;5031201;28;20462;-63
2023/06/20 09:39:11;;;;;;;7.20;4.50;;;29.40;89.80;;;;;;5031156;28;20536;-64
2023/06/20 09:41:45;;;;;;;8.00;4.70;;;29.50;90.00;;;;;;5261439;22;20495;-62
2023/06/20 09:46:48;;;;;;;7.23;4.00;;;29.80;89.50;;;;;;5020630;22;20538;-62
2023/06/20 09:49:16;;;;;;;8.90;3.87;;;29.90;88.20;;;;;;4992556;28;20460;-63
2023/06/20 09:51:48;;;;;;;7.47;4.60;;;30.00;87.80;;;;;;4995996;28;20452;-63
2023/06/20 09:54:22;;;;;;;6.70;4.00;;;30.10;86.50;;;;;;4995041;28;20464;-63
2023/06/20 09:56:52;;;;;;;9.93;4.40;;;30.10;88.60;;;;;;4996176;28;20460;-63
2023/06/20 09:59:22;;;;;;;9.67;5.33;;;30.20;88.80;;;;;;4995825;28;20548;-63
2023/06/20 10:01:50;;;;;;;13.63;4.77;;;30.40;88.30;;;;;;4995562;28;20452;-66
2023/06/20 10:04:20;;;;;;;5.27;3.67;;;30.60;87.00;;;;;;4995507;28;20464;-66
2023/06/20 10:06:48;;;;;;;8.40;4.50;;;30.60;86.00;;;;;;4995614;28;20472;-66
2023/06/20 10:09:16;;;;;;;6.07;4.20;;;30.80;85.10;;;;;;4995440;28;20460;-66
2023/06/20 10:11:45;;;;;;;12.03;4.77;;;30.90;87.00;;;;;;4995380;28;20955;-66
2023/06/20 10:14:12;;;;;;;5.70;3.80;;;31.10;84.30;;;;;;4995456;28;20464;-66
2023/06/20 10:16:39;;;;;;;6.17;4.13;;;31.20;84.40;;;;;;4995677;28;20488;-66
2023/06/20 10:19:18;;;;;;;8.57;4.30;;;31.20;83.80;;;;;;4995486;28;20460;-66
2023/06/20 10:21:57;;;;;;;11.67;4.63;;;31.30;84.50;;;;;;4995598;28;20463;-66
2023/06/20 10:24:27;;;;;;;7.23;4.40;;;31.30;84.80;;;;;;4995207;28;20548;-66
2023/06/20 10:26:55;;;;;;;7.40;3.80;;;31.50;83.50;;;;;;4995258;28;20526;-66
2023/06/20 10:29:22;;;;;;;6.20;4.00;;;31.50;82.90;;;;;;4995355;28;20547;-66
2023/06/20 10:31:57;;;;;;;7.00;4.30;;;31.60;81.00;;;;;;4995356;28;20495;-66
2023/06/20 10:34:46;;;;;;;9.67;4.77;;;31.80;79.90;;;;;;4995262;28;20498;-66
2023/06/20 10:37:17;;;;;;;7.43;4.63;;;31.90;79.40;;;;;;4992022;28;20488;-66
2023/06/20 10:39:54;;;;;;;5.60;4.10;;;31.80;80.10;;;;;;4993976;28;20480;-66
2023/06/20 10:42:38;;;;;;;8.43;4.90;;;31.90;80.60;;;;;;4995260;28;20502;-66
2023/06/20 10:45:33;;;;;;;8.37;4.73;;;31.90;78.20;;;;;;4994107;28;20546;-66
2023/06/20 10:48:01;;;;;;;10.50;4.90;;;31.80;79.10;;;;;;4971428;28;20519;-66
2023/06/20 10:50:37;;;;;;;7.63;4.77;;;31.90;79.10;;;;;;4994282;28;20460;-66
2023/06/20 10:53:06;;;;;;;7.10;4.00;;;32.10;80.00;;;;;;4994960;28;20464;-66
2023/06/20 10:55:38;;;;;;;5.47;3.93;;;32.40;79.40;;;;;;4994961;28;20496;-67
2023/06/20 10:58:05;;;;;;;6.50;4.40;;;32.70;78.70;;;;;;4994720;28;20461;-67
2023/06/20 11:00:32;;;;;;;6.40;4.00;;;32.80;75.80;;;;;;4993686;28;21267;-66
2023/06/20 11:02:59;;;;;;;8.10;4.73;;;32.90;75.40;;;;;;4994489;28;20467;-66
2023/06/20 11:05:30;;;;;;;6.27;4.40;;;33.10;76.10;;;;;;4994724;28;20507;-66
2023/06/20 11:07:59;;;;;;;6.87;4.50;;;33.30;75.60;;;;;;4977211;28;20811;-66
2023/06/20 11:10:30;;;;;;;6.20;4.00;;;33.50;75.50;;;;;;4994722;28;20871;-66
2023/06/20 11:12:59;;;;;;;7.30;4.30;;;33.80;72.60;;;;;;4994325;28;20870;-67
2023/06/20 11:15:28;;;;;;;6.40;3.90;;;33.90;71.80;;;;;;4994278;28;20994;-67
2023/06/20 11:17:56;;;;;;;7.80;4.10;;;34.20;71.60;;;;;;4994525;28;20484;-66
2023/06/20 11:20:25;;;;;;;7.30;4.30;;;34.40;70.60;;;;;;4994324;28;20460;-67
2023/06/20 11:22:57;;;;;;;7.33;4.27;;;34.70;70.60;;;;;;4994120;28;20476;-64
2023/06/20 11:25:26;;;;;;;7.73;4.60;;;34.60;71.50;;;;;;4993945;28;20472;-66
2023/06/20 11:27:53;;;;;;;7.53;4.60;;;34.50;71.10;;;;;;4994211;28;20449;-66
2023/06/20 11:30:28;;;;;;;9.33;4.33;;;34.40;71.60;;;;;;4994220;28;20456;-66
2023/06/20 11:33:03;;;;;;;6.60;4.33;;;34.50;71.20;;;;;;4994257;28;20460;-65
2023/06/20 11:35:44;;;;;;;9.57;5.00;;;34.50;71.80;;;;;;4993826;28;21047;-61
2023/06/20 11:38:15;;;;;;;8.60;4.60;;;34.70;72.30;;;;;;4993061;28;20452;-64
2023/06/20 11:40:43;;;;;;;7.77;4.73;;;34.70;71.90;;;;;;4994237;28;20248;-64
2023/06/20 11:43:24;;;;;;;7.33;4.60;;;34.80;72.20;;;;;;4994132;28;20459;-64
2023/06/20 11:45:51;;;;;;;6.50;4.40;;;34.80;73.30;;;;;;4993452;28;20477;-64
2023/06/20 11:48:19;;;;;;;7.90;4.90;;;35.00;71.80;;;;;;4993333;28;20453;-65
2023/06/20 11:50:55;;;;;;;8.30;4.27;;;34.90;68.80;;;;;;4992038;28;20460;-64
2023/06/20 11:53:26;;;;;;;6.97;4.33;;;34.80;67.50;;;;;;4991617;28;20555;-64
2023/06/20 11:55:55;;;;;;;8.47;4.57;;;34.60;68.30;;;;;;4992787;28;20484;-64
2023/06/20 11:58:22;;;;;;;9.17;4.37;;;34.50;66.80;;;;;;4992604;28;20472;-64
2023/06/20 12:01:09;;;;;;;7.03;4.50;;;34.40;68.00;;;;;;4992498;28;20568;-64
2023/06/20 12:03:38;;;;;;;7.70;4.47;;;34.40;67.40;;;;;;4992666;28;20455;-64
2023/06/20 12:06:25;;;;;;;10.03;4.50;;;34.50;67.10;;;;;;4992298;28;20449;-64
2023/06/20 12:08:57;;;;;;;6.63;4.47;;;34.70;67.70;;;;;;4993104;28;20460;-64
2023/06/20 12:13:59;;;;;;;11.77;4.30;;;35.10;67.90;;;;;;5157488;23;21184;-63
2023/06/20 12:16:27;;;;;;;7.80;4.13;;;35.30;66.50;;;;;;5009804;28;20538;-64
2023/06/20 12:18:59;;;;;;;7.70;4.27;;;35.20;67.70;;;;;;5009913;28;20823;-64
2023/06/20 12:21:26;;;;;;;7.70;4.30;;;35.20;68.10;;;;;;5011188;28;20470;-64
2023/06/20 12:23:55;;;;;;;7.47;4.47;;;35.20;68.30;;;;;;5011649;28;20905;-64
2023/06/20 12:26:23;;;;;;;7.67;4.70;;;35.20;66.90;;;;;;5011593;28;20466;-64
2023/06/20 12:28:50;;;;;;;6.93;4.53;;;35.20;67.50;;;;;;5012964;28;20478;-64
2023/06/20 12:31:17;;;;;;;6.40;4.43;;;35.30;66.40;;;;;;5012861;28;20461;-64
2023/06/20 12:33:44;;;;;;;11.10;4.73;;;35.30;67.10;;;;;;5012906;28;20456;-64
2023/06/20 12:36:12;;;;;;;6.57;4.13;;;35.40;66.10;;;;;;5012573;28;21013;-65
2023/06/20 12:38:39;;;;;;;8.23;4.60;;;35.40;67.30;;;;;;5012676;28;20462;-64
2023/06/20 12:41:08;;;;;;;7.90;4.47;;;35.40;67.70;;;;;;5012473;28;20455;-64
2023/06/20 12:43:35;;;;;;;7.03;4.57;;;35.60;66.70;;;;;;5012232;28;21027;-64
2023/06/20 12:46:02;;;;;;;10.00;4.87;;;35.50;67.10;;;;;;5012569;28;20856;-65
2023/06/20 12:48:29;;;;;;;9.37;5.03;;;35.20;67.70;;;;;;5012181;28;20809;-64
2023/06/20 12:50:57;;;;;;;10.17;4.30;;;34.90;67.70;;;;;;5011197;28;20467;-65
2023/06/20 12:53:27;;;;;;;9.63;4.83;;;34.80;68.00;;;;;;5010913;28;20821;-65
2023/06/20 12:55:57;;;;;;;9.60;5.20;;;34.80;67.80;;;;;;5009267;28;20482;-65
2023/06/20 12:58:29;;;;;;;8.17;4.53;;;34.90;69.20;;;;;;5010402;28;20825;-64
2023/06/20 13:00:56;;;;;;;8.90;4.83;;;35.10;69.10;;;;;;5011128;28;20456;-65